sensor_id;sensor_type;location;lat;lon;timestamp;pressure;altitude;pressure_sealevel;temperature
68127;BMP180;54931;52.098;21.006;2022-07-06T00:00:12;100449.40;;;17.80
68127;BMP180;54931;52.098;21.006;2022-07-06T00:03:00;100448.60;;;17.76
68127;BMP180;54931;52.098;21.006;2022-07-06T00:05:27;100442.40;;;17.70
68127;BMP180;54931;52.098;21.006;2022-07-06T00:07:54;100439.60;;;17.76
68127;BMP180;54931;52.098;21.006;2022-07-06T00:10:21;100439.00;;;17.74
68127;BMP180;54931;52.098;21.006;2022-07-06T00:12:49;100436.40;;;17.70
68127;BMP180;54931;52.098;21.006;2022-07-06T00:15:16;100438.40;;;17.70
68127;BMP180;54931;52.098;21.006;2022-07-06T00:17:44;100440.60;;;17.62
68127;BMP180;54931;52.098;21.006;2022-07-06T00:20:11;100434.80;;;17.68
68127;BMP180;54931;52.098;21.006;2022-07-06T00:22:39;100435.20;;;17.68
68127;BMP180;54931;52.098;21.006;2022-07-06T00:25:07;100431.60;;;17.60
68127;BMP180;54931;52.098;21.006;2022-07-06T00:27:35;100427.20;;;17.50
68127;BMP180;54931;52.098;21.006;2022-07-06T00:30:03;100424.80;;;17.50
68127;BMP180;54931;52.098;21.006;2022-07-06T00:32:30;100429.60;;;17.40
68127;BMP180;54931;52.098;21.006;2022-07-06T00:34:57;100431.00;;;17.40
68127;BMP180;54931;52.098;21.006;2022-07-06T00:37:25;100433.00;;;17.40
68127;BMP180;54931;52.098;21.006;2022-07-06T00:39:52;100437.00;;;17.30
68127;BMP180;54931;52.098;21.006;2022-07-06T00:42:19;100434.60;;;17.30
68127;BMP180;54931;52.098;21.006;2022-07-06T00:44:47;100432.60;;;17.24
68127;BMP180;54931;52.098;21.006;2022-07-06T00:47:14;100424.40;;;17.20
68127;BMP180;54931;52.098;21.006;2022-07-06T00:49:41;100422.80;;;17.20
68127;BMP180;54931;52.098;21.006;2022-07-06T00:52:28;100423.00;;;17.20
68127;BMP180;54931;52.098;21.006;2022-07-06T00:54:55;100415.00;;;17.20
68127;BMP180;54931;52.098;21.006;2022-07-06T00:57:23;100416.80;;;17.10
68127;BMP180;54931;52.098;21.006;2022-07-06T00:59:50;100415.40;;;17.10
68127;BMP180;54931;52.098;21.006;2022-07-06T01:02:17;100411.80;;;17.10
68127;BMP180;54931;52.098;21.006;2022-07-06T01:04:45;100409.80;;;17.04
68127;BMP180;54931;52.098;21.006;2022-07-06T01:07:12;100412.80;;;17.10
68127;BMP180;54931;52.098;21.006;2022-07-06T01:09:40;100411.20;;;17.08
68127;BMP180;54931;52.098;21.006;2022-07-06T01:12:07;100407.40;;;17.10
68127;BMP180;54931;52.098;21.006;2022-07-06T01:14:37;100409.40;;;17.10
68127;BMP180;54931;52.098;21.006;2022-07-06T01:17:05;100406.40;;;17.10
68127;BMP180;54931;52.098;21.006;2022-07-06T01:19:32;100407.00;;;17.10
68127;BMP180;54931;52.098;21.006;2022-07-06T01:21:59;100402.20;;;17.10
68127;BMP180;54931;52.098;21.006;2022-07-06T01:24:27;100399.60;;;17.10
68127;BMP180;54931;52.098;21.006;2022-07-06T01:26:54;100402.40;;;17.10
68127;BMP180;54931;52.098;21.006;2022-07-06T01:29:22;100393.20;;;17.10
68127;BMP180;54931;52.098;21.006;2022-07-06T01:31:50;100397.00;;;17.10
68127;BMP180;54931;52.098;21.006;2022-07-06T01:34:19;100399.00;;;17.10
68127;BMP180;54931;52.098;21.006;2022-07-06T01:36:46;100393.80;;;17.20
68127;BMP180;54931;52.098;21.006;2022-07-06T01:39:14;100393.20;;;17.20
68127;BMP180;54931;52.098;21.006;2022-07-06T01:41:41;100394.60;;;17.12
68127;BMP180;54931;52.098;21.006;2022-07-06T01:44:09;100398.20;;;17.10
68127;BMP180;54931;52.098;21.006;2022-07-06T01:46:37;100398.40;;;17.10
68127;BMP180;54931;52.098;21.006;2022-07-06T01:49:05;100397.20;;;17.10
68127;BMP180;54931;52.098;21.006;2022-07-06T01:51:32;100400.20;;;17.20
68127;BMP180;54931;52.098;21.006;2022-07-06T01:54:00;100402.20;;;17.20
68127;BMP180;54931;52.098;21.006;2022-07-06T01:56:27;100400.60;;;17.20
68127;BMP180;54931;52.098;21.006;2022-07-06T01:58:54;100403.60;;;17.20
68127;BMP180;54931;52.098;21.006;2022-07-06T02:01:22;100396.80;;;17.20
68127;BMP180;54931;52.098;21.006;2022-07-06T02:03:49;100401.40;;;17.20
68127;BMP180;54931;52.098;21.006;2022-07-06T02:06:17;100397.00;;;17.30
68127;BMP180;54931;52.098;21.006;2022-07-06T02:08:44;100395.00;;;17.30
68127;BMP180;54931;52.098;21.006;2022-07-06T02:11:11;100394.60;;;17.24
68127;BMP180;54931;52.098;21.006;2022-07-06T02:13:39;100393.80;;;17.20
68127;BMP180;54931;52.098;21.006;2022-07-06T02:16:07;100398.00;;;17.20
68127;BMP180;54931;52.098;21.006;2022-07-06T02:18:34;100392.20;;;17.20
68127;BMP180;54931;52.098;21.006;2022-07-06T02:21:01;100391.00;;;17.20
68127;BMP180;54931;52.098;21.006;2022-07-06T02:23:28;100389.40;;;17.20
68127;BMP180;54931;52.098;21.006;2022-07-06T02:25:55;100386.80;;;17.20
68127;BMP180;54931;52.098;21.006;2022-07-06T02:28:23;100389.60;;;17.20
68127;BMP180;54931;52.098;21.006;2022-07-06T02:30:50;100386.00;;;17.20
68127;BMP180;54931;52.098;21.006;2022-07-06T02:33:17;100386.00;;;17.14
68127;BMP180;54931;52.098;21.006;2022-07-06T02:35:44;100384.40;;;17.10
68127;BMP180;54931;52.098;21.006;2022-07-06T02:38:12;100382.60;;;17.12
68127;BMP180;54931;52.098;21.006;2022-07-06T02:40:39;100377.60;;;17.20
68127;BMP180;54931;52.098;21.006;2022-07-06T02:43:07;100386.00;;;17.10
68127;BMP180;54931;52.098;21.006;2022-07-06T02:45:34;100384.40;;;17.00
68127;BMP180;54931;52.098;21.006;2022-07-06T02:48:02;100392.20;;;17.00
68127;BMP180;54931;52.098;21.006;2022-07-06T02:50:30;100397.20;;;16.90
68127;BMP180;54931;52.098;21.006;2022-07-06T02:52:57;100397.20;;;16.90
68127;BMP180;54931;52.098;21.006;2022-07-06T02:55:25;100396.60;;;16.90
68127;BMP180;54931;52.098;21.006;2022-07-06T02:57:52;100391.80;;;16.90
68127;BMP180;54931;52.098;21.006;2022-07-06T03:00:19;100394.40;;;16.90
68127;BMP180;54931;52.098;21.006;2022-07-06T03:02:47;100393.00;;;16.90
68127;BMP180;54931;52.098;21.006;2022-07-06T03:05:14;100395.60;;;16.90
68127;BMP180;54931;52.098;21.006;2022-07-06T03:07:41;100391.20;;;16.90
68127;BMP180;54931;52.098;21.006;2022-07-06T03:10:09;100391.80;;;16.90
68127;BMP180;54931;52.098;21.006;2022-07-06T03:12:36;100385.60;;;17.00
68127;BMP180;54931;52.098;21.006;2022-07-06T03:15:04;100387.60;;;17.00
68127;BMP180;54931;52.098;21.006;2022-07-06T03:17:31;100389.60;;;17.00
68127;BMP180;54931;52.098;21.006;2022-07-06T03:19:59;100384.60;;;17.00
68127;BMP180;54931;52.098;21.006;2022-07-06T03:22:26;100382.80;;;17.00
68127;BMP180;54931;52.098;21.006;2022-07-06T03:24:53;100381.40;;;17.00
68127;BMP180;54931;52.098;21.006;2022-07-06T03:27:20;100380.80;;;17.00
68127;BMP180;54931;52.098;21.006;2022-07-06T03:29:47;100380.20;;;16.96
68127;BMP180;54931;52.098;21.006;2022-07-06T03:32:14;100376.00;;;16.92
68127;BMP180;54931;52.098;21.006;2022-07-06T03:34:42;100373.00;;;17.00
68127;BMP180;54931;52.098;21.006;2022-07-06T03:37:09;100363.60;;;17.00
68127;BMP180;54931;52.098;21.006;2022-07-06T03:39:36;100365.60;;;17.00
68127;BMP180;54931;52.098;21.006;2022-07-06T03:42:04;100370.40;;;16.90
68127;BMP180;54931;52.098;21.006;2022-07-06T03:44:31;100365.60;;;16.90
68127;BMP180;54931;52.098;21.006;2022-07-06T03:46:58;100356.40;;;16.90
68127;BMP180;54931;52.098;21.006;2022-07-06T03:49:25;100347.40;;;17.00
68127;BMP180;54931;52.098;21.006;2022-07-06T03:51:54;100342.00;;;17.00
68127;BMP180;54931;52.098;21.006;2022-07-06T03:54:21;100346.80;;;17.00
68127;BMP180;54931;52.098;21.006;2022-07-06T03:56:49;100348.80;;;16.90
68127;BMP180;54931;52.098;21.006;2022-07-06T03:59:16;100345.20;;;16.90
68127;BMP180;54931;52.098;21.006;2022-07-06T04:01:44;100349.40;;;16.90
68127;BMP180;54931;52.098;21.006;2022-07-06T04:04:11;100348.80;;;16.80
68127;BMP180;54931;52.098;21.006;2022-07-06T04:06:38;100350.60;;;16.80
68127;BMP180;54931;52.098;21.006;2022-07-06T04:09:06;100344.80;;;16.82
68127;BMP180;54931;52.098;21.006;2022-07-06T04:11:34;100344.20;;;16.86
68127;BMP180;54931;52.098;21.006;2022-07-06T04:14:01;100345.20;;;16.90
68127;BMP180;54931;52.098;21.006;2022-07-06T04:16:28;100344.00;;;16.90
68127;BMP180;54931;52.098;21.006;2022-07-06T04:18:55;100345.80;;;16.96
68127;BMP180;54931;52.098;21.006;2022-07-06T04:21:22;100342.80;;;17.00
68127;BMP180;54931;52.098;21.006;2022-07-06T04:23:50;100348.40;;;17.08
68127;BMP180;54931;52.098;21.006;2022-07-06T04:26:17;100344.40;;;17.10
68127;BMP180;54931;52.098;21.006;2022-07-06T04:28:44;100344.40;;;17.10
68127;BMP180;54931;52.098;21.006;2022-07-06T04:31:11;100344.40;;;17.10
68127;BMP180;54931;52.098;21.006;2022-07-06T04:33:42;100341.80;;;17.10
68127;BMP180;54931;52.098;21.006;2022-07-06T04:36:10;100339.40;;;17.10
68127;BMP180;54931;52.098;21.006;2022-07-06T04:38:37;100333.20;;;17.08
68127;BMP180;54931;52.098;21.006;2022-07-06T04:41:04;100327.80;;;17.08
68127;BMP180;54931;52.098;21.006;2022-07-06T04:43:32;100337.00;;;17.10
68127;BMP180;54931;52.098;21.006;2022-07-06T04:45:59;100334.80;;;17.04
68127;BMP180;54931;52.098;21.006;2022-07-06T04:48:28;100340.40;;;17.10
68127;BMP180;54931;52.098;21.006;2022-07-06T04:50:55;100341.00;;;17.10
68127;BMP180;54931;52.098;21.006;2022-07-06T04:53:22;100343.00;;;17.10
68127;BMP180;54931;52.098;21.006;2022-07-06T04:55:49;100339.20;;;17.10
68127;BMP180;54931;52.098;21.006;2022-07-06T04:58:17;100344.00;;;17.10
68127;BMP180;54931;52.098;21.006;2022-07-06T05:00:44;100347.00;;;17.10
68127;BMP180;54931;52.098;21.006;2022-07-06T05:03:11;100350.20;;;17.10
68127;BMP180;54931;52.098;21.006;2022-07-06T05:05:39;100346.80;;;17.14
68127;BMP180;54931;52.098;21.006;2022-07-06T05:08:06;100342.20;;;17.20
68127;BMP180;54931;52.098;21.006;2022-07-06T05:10:34;100340.40;;;17.20
68127;BMP180;54931;52.098;21.006;2022-07-06T05:13:01;100340.40;;;17.20
68127;BMP180;54931;52.098;21.006;2022-07-06T05:15:28;100342.40;;;17.20
68127;BMP180;54931;52.098;21.006;2022-07-06T05:17:55;100344.00;;;17.20
68127;BMP180;54931;52.098;21.006;2022-07-06T05:20:22;100342.40;;;17.44
68127;BMP180;54931;52.098;21.006;2022-07-06T05:22:50;100347.60;;;17.84
68127;BMP180;54931;52.098;21.006;2022-07-06T05:25:17;100346.80;;;18.32
68127;BMP180;54931;52.098;21.006;2022-07-06T05:27:44;100352.00;;;18.76
68127;BMP180;54931;52.098;21.006;2022-07-06T05:30:12;100351.80;;;19.00
68127;BMP180;54931;52.098;21.006;2022-07-06T05:32:40;100345.00;;;19.10
68127;BMP180;54931;52.098;21.006;2022-07-06T05:35:08;100352.40;;;19.10
68127;BMP180;54931;52.098;21.006;2022-07-06T05:37:35;100352.20;;;19.00
68127;BMP180;54931;52.098;21.006;2022-07-06T05:40:04;100355.60;;;18.90
68127;BMP180;54931;52.098;21.006;2022-07-06T05:42:31;100361.60;;;18.80
68127;BMP180;54931;52.098;21.006;2022-07-06T05:44:58;100367.00;;;18.60
68127;BMP180;54931;52.098;21.006;2022-07-06T05:47:25;100362.40;;;18.60
68127;BMP180;54931;52.098;21.006;2022-07-06T05:50:11;100369.40;;;18.50
68127;BMP180;54931;52.098;21.006;2022-07-06T05:52:43;100368.80;;;18.50
68127;BMP180;54931;52.098;21.006;2022-07-06T05:55:12;100370.20;;;18.50
68127;BMP180;54931;52.098;21.006;2022-07-06T05:57:40;100372.40;;;18.50
68127;BMP180;54931;52.098;21.006;2022-07-06T06:00:08;100374.80;;;18.50
68127;BMP180;54931;52.098;21.006;2022-07-06T06:02:42;100377.00;;;18.60
68127;BMP180;54931;52.098;21.006;2022-07-06T06:05:11;100386.60;;;18.80
68127;BMP180;54931;52.098;21.006;2022-07-06T06:07:38;100380.00;;;18.90
68127;BMP180;54931;52.098;21.006;2022-07-06T06:10:09;100378.80;;;19.00
68127;BMP180;54931;52.098;21.006;2022-07-06T06:12:38;100382.80;;;19.08
68127;BMP180;54931;52.098;21.006;2022-07-06T06:15:08;100383.60;;;19.18
68127;BMP180;54931;52.098;21.006;2022-07-06T06:17:37;100387.40;;;19.24
68127;BMP180;54931;52.098;21.006;2022-07-06T06:20:09;100386.60;;;19.38
68127;BMP180;54931;52.098;21.006;2022-07-06T06:22:51;100385.80;;;19.44
68127;BMP180;54931;52.098;21.006;2022-07-06T06:25:31;100383.20;;;19.50
68127;BMP180;54931;52.098;21.006;2022-07-06T06:27:59;100382.20;;;19.50
68127;BMP180;54931;52.098;21.006;2022-07-06T06:30:27;100381.00;;;19.60
68127;BMP180;54931;52.098;21.006;2022-07-06T06:33:17;100379.60;;;19.74
68127;BMP180;54931;52.098;21.006;2022-07-06T06:35:49;100373.00;;;20.00
68127;BMP180;54931;52.098;21.006;2022-07-06T06:38:19;100373.40;;;20.10
68127;BMP180;54931;52.098;21.006;2022-07-06T06:40:47;100373.40;;;20.20
68127;BMP180;54931;52.098;21.006;2022-07-06T06:43:14;100376.00;;;20.10
68127;BMP180;54931;52.098;21.006;2022-07-06T06:45:41;100384.60;;;19.90
68127;BMP180;54931;52.098;21.006;2022-07-06T06:48:09;100386.60;;;19.80
68127;BMP180;54931;52.098;21.006;2022-07-06T06:50:36;100382.20;;;19.68
68127;BMP180;54931;52.098;21.006;2022-07-06T06:53:03;100382.20;;;19.60
68127;BMP180;54931;52.098;21.006;2022-07-06T06:55:30;100380.20;;;19.60
68127;BMP180;54931;52.098;21.006;2022-07-06T06:57:58;100385.20;;;19.60
68127;BMP180;54931;52.098;21.006;2022-07-06T07:00:25;100387.40;;;19.72
68127;BMP180;54931;52.098;21.006;2022-07-06T07:02:52;100384.20;;;19.98
68127;BMP180;54931;52.098;21.006;2022-07-06T07:05:20;100384.00;;;20.40
68127;BMP180;54931;52.098;21.006;2022-07-06T07:07:48;100381.00;;;20.48
68127;BMP180;54931;52.098;21.006;2022-07-06T07:10:15;100385.40;;;20.30
68127;BMP180;54931;52.098;21.006;2022-07-06T07:12:47;100385.40;;;20.00
68127;BMP180;54931;52.098;21.006;2022-07-06T07:15:16;100384.20;;;19.88
68127;BMP180;54931;52.098;21.006;2022-07-06T07:17:43;100385.40;;;19.80
68127;BMP180;54931;52.098;21.006;2022-07-06T07:20:11;100391.00;;;19.80
68127;BMP180;54931;52.098;21.006;2022-07-06T07:22:38;100379.00;;;20.14
68127;BMP180;54931;52.098;21.006;2022-07-06T07:25:07;100382.80;;;20.46
68127;BMP180;54931;52.098;21.006;2022-07-06T07:27:35;100385.60;;;20.82
68127;BMP180;54931;52.098;21.006;2022-07-06T07:30:04;100386.00;;;21.16
68127;BMP180;54931;52.098;21.006;2022-07-06T07:32:31;100385.00;;;21.20
68127;BMP180;54931;52.098;21.006;2022-07-06T07:34:59;100379.80;;;21.16
68127;BMP180;54931;52.098;21.006;2022-07-06T07:37:26;100381.40;;;21.24
68127;BMP180;54931;52.098;21.006;2022-07-06T07:39:53;100379.00;;;21.74
68127;BMP180;54931;52.098;21.006;2022-07-06T07:42:21;100381.00;;;22.36
68127;BMP180;54931;52.098;21.006;2022-07-06T07:44:48;100382.40;;;22.88
68127;BMP180;54931;52.098;21.006;2022-07-06T07:47:15;100391.40;;;23.00
68127;BMP180;54931;52.098;21.006;2022-07-06T07:49:43;100390.80;;;22.74
68127;BMP180;54931;52.098;21.006;2022-07-06T07:52:11;100398.00;;;22.30
68127;BMP180;54931;52.098;21.006;2022-07-06T07:54:39;100400.20;;;22.00
68127;BMP180;54931;52.098;21.006;2022-07-06T07:57:06;100399.40;;;21.80
68127;BMP180;54931;52.098;21.006;2022-07-06T07:59:33;100399.80;;;21.96
68127;BMP180;54931;52.098;21.006;2022-07-06T08:02:01;100401.00;;;22.28
68127;BMP180;54931;52.098;21.006;2022-07-06T08:04:28;100397.60;;;22.66
68127;BMP180;54931;52.098;21.006;2022-07-06T08:06:55;100402.60;;;23.08
68127;BMP180;54931;52.098;21.006;2022-07-06T08:09:23;100411.60;;;23.10
68127;BMP180;54931;52.098;21.006;2022-07-06T08:11:50;100408.80;;;23.10
68127;BMP180;54931;52.098;21.006;2022-07-06T08:14:18;100404.80;;;23.30
68127;BMP180;54931;52.098;21.006;2022-07-06T08:16:45;100402.20;;;23.64
68127;BMP180;54931;52.098;21.006;2022-07-06T08:19:13;100407.00;;;24.04
68127;BMP180;54931;52.098;21.006;2022-07-06T08:21:42;100408.00;;;24.34
68127;BMP180;54931;52.098;21.006;2022-07-06T08:24:11;100413.60;;;24.60
68127;BMP180;54931;52.098;21.006;2022-07-06T08:26:38;100408.00;;;24.72
68127;BMP180;54931;52.098;21.006;2022-07-06T08:29:06;100407.00;;;25.00
68127;BMP180;54931;52.098;21.006;2022-07-06T08:31:33;100407.80;;;25.20
68127;BMP180;54931;52.098;21.006;2022-07-06T08:34:02;100399.80;;;25.30
68127;BMP180;54931;52.098;21.006;2022-07-06T08:36:30;100399.80;;;25.40
68127;BMP180;54931;52.098;21.006;2022-07-06T08:38:58;100400.40;;;25.48
68127;BMP180;54931;52.098;21.006;2022-07-06T08:41:29;100406.20;;;25.60
68127;BMP180;54931;52.098;21.006;2022-07-06T08:43:57;100403.00;;;25.60
68127;BMP180;54931;52.098;21.006;2022-07-06T08:46:28;100407.60;;;25.80
68127;BMP180;54931;52.098;21.006;2022-07-06T08:48:56;100413.80;;;25.70
68127;BMP180;54931;52.098;21.006;2022-07-06T08:51:25;100417.00;;;25.34
68127;BMP180;54931;52.098;21.006;2022-07-06T08:53:54;100416.00;;;24.74
68127;BMP180;54931;52.098;21.006;2022-07-06T08:56:23;100418.40;;;24.38
68127;BMP180;54931;52.098;21.006;2022-07-06T08:58:50;100422.40;;;23.92
68127;BMP180;54931;52.098;21.006;2022-07-06T09:01:18;100423.80;;;24.10
68127;BMP180;54931;52.098;21.006;2022-07-06T09:03:48;100428.80;;;24.00
68127;BMP180;54931;52.098;21.006;2022-07-06T09:06:23;100422.60;;;23.90
68127;BMP180;54931;52.098;21.006;2022-07-06T09:08:55;100421.80;;;24.12
68127;BMP180;54931;52.098;21.006;2022-07-06T09:11:24;100426.80;;;24.60
68127;BMP180;54931;52.098;21.006;2022-07-06T09:13:55;100424.20;;;25.16
68127;BMP180;54931;52.098;21.006;2022-07-06T09:16:30;100419.40;;;25.66
68127;BMP180;54931;52.098;21.006;2022-07-06T09:18:59;100428.00;;;26.00
68127;BMP180;54931;52.098;21.006;2022-07-06T09:21:29;100417.80;;;25.22
68127;BMP180;54931;52.098;21.006;2022-07-06T09:24:01;100420.40;;;24.70
68127;BMP180;54931;52.098;21.006;2022-07-06T09:26:31;100423.40;;;24.60
68127;BMP180;54931;52.098;21.006;2022-07-06T09:29:00;100420.60;;;24.80
68127;BMP180;54931;52.098;21.006;2022-07-06T09:31:28;100417.20;;;25.30
68127;BMP180;54931;52.098;21.006;2022-07-06T09:34:05;100414.60;;;25.64
68127;BMP180;54931;52.098;21.006;2022-07-06T09:36:48;100417.80;;;25.92
68127;BMP180;54931;52.098;21.006;2022-07-06T09:39:27;100418.60;;;25.70
68127;BMP180;54931;52.098;21.006;2022-07-06T09:41:58;100412.40;;;25.50
68127;BMP180;54931;52.098;21.006;2022-07-06T09:44:31;100419.80;;;25.60
68127;BMP180;54931;52.098;21.006;2022-07-06T09:47:11;100428.60;;;25.46
68127;BMP180;54931;52.098;21.006;2022-07-06T09:49:39;100430.60;;;25.50
68127;BMP180;54931;52.098;21.006;2022-07-06T09:52:10;100432.60;;;25.20
68127;BMP180;54931;52.098;21.006;2022-07-06T09:54:39;100423.80;;;25.28
68127;BMP180;54931;52.098;21.006;2022-07-06T09:57:07;100418.60;;;25.62
68127;BMP180;54931;52.098;21.006;2022-07-06T09:59:36;100409.40;;;25.76
68127;BMP180;54931;52.098;21.006;2022-07-06T10:02:07;100413.20;;;25.90
68127;BMP180;54931;52.098;21.006;2022-07-06T10:04:35;100423.60;;;26.10
68127;BMP180;54931;52.098;21.006;2022-07-06T10:07:04;100417.00;;;26.12
68127;BMP180;54931;52.098;21.006;2022-07-06T10:09:33;100405.60;;;26.28
68127;BMP180;54931;52.098;21.006;2022-07-06T10:12:03;100412.80;;;26.20
68127;BMP180;54931;52.098;21.006;2022-07-06T10:14:33;100411.20;;;25.66
68127;BMP180;54931;52.098;21.006;2022-07-06T10:17:03;100411.20;;;25.40
68127;BMP180;54931;52.098;21.006;2022-07-06T10:19:32;100410.60;;;25.42
68127;BMP180;54931;52.098;21.006;2022-07-06T10:22:02;100411.00;;;25.50
68127;BMP180;54931;52.098;21.006;2022-07-06T10:24:31;100418.40;;;25.84
68127;BMP180;54931;52.098;21.006;2022-07-06T10:27:02;100417.00;;;26.16
68127;BMP180;54931;52.098;21.006;2022-07-06T10:29:30;100408.60;;;26.30
68127;BMP180;54931;52.098;21.006;2022-07-06T10:32:00;100417.40;;;26.00
68127;BMP180;54931;52.098;21.006;2022-07-06T10:34:28;100422.80;;;25.54
68127;BMP180;54931;52.098;21.006;2022-07-06T10:36:56;100425.60;;;25.00
68127;BMP180;54931;52.098;21.006;2022-07-06T10:39:39;100428.00;;;24.48
68127;BMP180;54931;52.098;21.006;2022-07-06T10:53:16;100419.20;;;24.00
68127;BMP180;54931;52.098;21.006;2022-07-06T10:55:47;100422.40;;;24.40
68127;BMP180;54931;52.098;21.006;2022-07-06T10:58:47;100426.60;;;24.72
68127;BMP180;54931;52.098;21.006;2022-07-06T11:01:16;100428.60;;;25.10
68127;BMP180;54931;52.098;21.006;2022-07-06T11:04:08;100429.40;;;25.00
68127;BMP180;54931;52.098;21.006;2022-07-06T11:06:39;100420.60;;;24.80
68127;BMP180;54931;52.098;21.006;2022-07-06T11:09:09;100427.80;;;25.00
68127;BMP180;54931;52.098;21.006;2022-07-06T11:11:42;100418.40;;;25.22
68127;BMP180;54931;52.098;21.006;2022-07-06T11:14:21;100424.00;;;25.70
68127;BMP180;54931;52.098;21.006;2022-07-06T11:19:17;100424.80;;;25.40
68127;BMP180;54931;52.098;21.006;2022-07-06T11:21:56;100417.60;;;25.30
68127;BMP180;54931;52.098;21.006;2022-07-06T11:24:30;100414.40;;;25.50
68127;BMP180;54931;52.098;21.006;2022-07-06T11:27:00;100419.00;;;25.50
68127;BMP180;54931;52.098;21.006;2022-07-06T11:29:29;100417.00;;;25.40
68127;BMP180;54931;52.098;21.006;2022-07-06T11:32:00;100414.80;;;25.16
68127;BMP180;54931;52.098;21.006;2022-07-06T11:34:32;100407.00;;;25.00
68127;BMP180;54931;52.098;21.006;2022-07-06T11:37:04;100414.20;;;24.70
68127;BMP180;54931;52.098;21.006;2022-07-06T11:39:34;100409.60;;;24.32
68127;BMP180;54931;52.098;21.006;2022-07-06T11:42:03;100407.00;;;24.40
68127;BMP180;54931;52.098;21.006;2022-07-06T11:44:31;100409.00;;;24.50
68127;BMP180;54931;52.098;21.006;2022-07-06T11:46:59;100404.60;;;24.88
68127;BMP180;54931;52.098;21.006;2022-07-06T11:49:31;100408.20;;;25.10
68127;BMP180;54931;52.098;21.006;2022-07-06T11:51:59;100404.20;;;25.00
68127;BMP180;54931;52.098;21.006;2022-07-06T11:54:27;100408.40;;;24.80
68127;BMP180;54931;52.098;21.006;2022-07-06T11:56:57;100409.20;;;24.60
68127;BMP180;54931;52.098;21.006;2022-07-06T11:59:34;100415.00;;;24.70
68127;BMP180;54931;52.098;21.006;2022-07-06T12:02:08;100418.80;;;24.50
68127;BMP180;54931;52.098;21.006;2022-07-06T12:04:41;100417.60;;;24.50
68127;BMP180;54931;52.098;21.006;2022-07-06T12:07:12;100424.00;;;24.60
68127;BMP180;54931;52.098;21.006;2022-07-06T12:09:43;100420.80;;;24.50
68127;BMP180;54931;52.098;21.006;2022-07-06T12:12:12;100414.00;;;24.40
68127;BMP180;54931;52.098;21.006;2022-07-06T12:14:41;100418.20;;;24.30
68127;BMP180;54931;52.098;21.006;2022-07-06T12:17:12;100418.00;;;24.30
68127;BMP180;54931;52.098;21.006;2022-07-06T12:19:41;100420.40;;;24.40
68127;BMP180;54931;52.098;21.006;2022-07-06T12:22:10;100418.20;;;24.50
68127;BMP180;54931;52.098;21.006;2022-07-06T12:24:43;100417.20;;;24.50
68127;BMP180;54931;52.098;21.006;2022-07-06T12:27:17;100414.20;;;24.60
68127;BMP180;54931;52.098;21.006;2022-07-06T12:29:47;100416.20;;;24.50
68127;BMP180;54931;52.098;21.006;2022-07-06T12:32:22;100414.00;;;24.40
68127;BMP180;54931;52.098;21.006;2022-07-06T12:35:07;100407.40;;;24.42
68127;BMP180;54931;52.098;21.006;2022-07-06T12:37:35;100402.00;;;24.70
68127;BMP180;54931;52.098;21.006;2022-07-06T12:40:13;100404.60;;;25.00
68127;BMP180;54931;52.098;21.006;2022-07-06T12:42:47;100405.20;;;25.10
68127;BMP180;54931;52.098;21.006;2022-07-06T12:45:17;100408.60;;;25.30
68127;BMP180;54931;52.098;21.006;2022-07-06T12:48:05;100415.60;;;25.10
68127;BMP180;54931;52.098;21.006;2022-07-06T12:50:38;100412.60;;;25.00
68127;BMP180;54931;52.098;21.006;2022-07-06T12:53:24;100415.00;;;24.90
68127;BMP180;54931;52.098;21.006;2022-07-06T12:56:14;100415.00;;;24.80
68127;BMP180;54931;52.098;21.006;2022-07-06T12:59:00;100417.60;;;24.90
68127;BMP180;54931;52.098;21.006;2022-07-06T13:01:28;100414.20;;;24.90
68127;BMP180;54931;52.098;21.006;2022-07-06T13:03:58;100417.40;;;24.74
68127;BMP180;54931;52.098;21.006;2022-07-06T13:06:34;100416.40;;;24.50
68127;BMP180;54931;52.098;21.006;2022-07-06T13:09:01;100418.80;;;24.28
68127;BMP180;54931;52.098;21.006;2022-07-06T13:11:29;100421.40;;;23.98
68127;BMP180;54931;52.098;21.006;2022-07-06T13:13:56;100417.20;;;23.70
68127;BMP180;54931;52.098;21.006;2022-07-06T13:16:23;100418.20;;;23.60
68127;BMP180;54931;52.098;21.006;2022-07-06T13:18:57;100419.40;;;23.50
68127;BMP180;54931;52.098;21.006;2022-07-06T13:21:24;100415.60;;;23.40
68127;BMP180;54931;52.098;21.006;2022-07-06T13:23:51;100415.40;;;23.40
68127;BMP180;54931;52.098;21.006;2022-07-06T13:26:19;100416.40;;;23.68
68127;BMP180;54931;52.098;21.006;2022-07-06T13:28:46;100415.40;;;23.92
68127;BMP180;54931;52.098;21.006;2022-07-06T13:31:13;100419.00;;;24.00
68127;BMP180;54931;52.098;21.006;2022-07-06T13:33:41;100416.40;;;23.90
68127;BMP180;54931;52.098;21.006;2022-07-06T13:36:09;100419.40;;;23.80
68127;BMP180;54931;52.098;21.006;2022-07-06T13:38:37;100416.60;;;23.64
68127;BMP180;54931;52.098;21.006;2022-07-06T13:41:04;100421.20;;;23.40
68127;BMP180;54931;52.098;21.006;2022-07-06T13:43:33;100424.20;;;23.20
68127;BMP180;54931;52.098;21.006;2022-07-06T13:46:04;100425.80;;;23.00
68127;BMP180;54931;52.098;21.006;2022-07-06T13:48:34;100425.00;;;22.80
68127;BMP180;54931;52.098;21.006;2022-07-06T13:51:01;100427.60;;;22.60
68127;BMP180;54931;52.098;21.006;2022-07-06T13:53:29;100428.60;;;22.50
68127;BMP180;54931;52.098;21.006;2022-07-06T13:55:59;100428.80;;;22.40
68127;BMP180;54931;52.098;21.006;2022-07-06T13:58:26;100430.80;;;22.36
68127;BMP180;54931;52.098;21.006;2022-07-06T14:00:54;100431.80;;;22.30
68127;BMP180;54931;52.098;21.006;2022-07-06T14:03:21;100427.60;;;22.30
68127;BMP180;54931;52.098;21.006;2022-07-06T14:05:54;100422.00;;;22.28
68127;BMP180;54931;52.098;21.006;2022-07-06T14:08:21;100419.40;;;22.30